sensor_id;sensor_type;location;lat;lon;timestamp;P1;durP1;ratioP1;P2;durP2;ratioP2
34775;SDS011;20989;52.566;13.346;2022-07-29T00:02:56;0.50;;;0.50;;
34775;SDS011;20989;52.566;13.346;2022-07-29T00:05:56;0.60;;;0.60;;
34775;SDS011;20989;52.566;13.346;2022-07-29T00:08:57;0.40;;;0.40;;
34775;SDS011;20989;52.566;13.346;2022-07-29T00:11:59;0.60;;;0.60;;
34775;SDS011;20989;52.566;13.346;2022-07-29T00:15:00;1.13;;;0.60;;
34775;SDS011;20989;52.566;13.346;2022-07-29T00:18:01;0.40;;;0.40;;
34775;SDS011;20989;52.566;13.346;2022-07-29T00:21:01;2.58;;;0.50;;
34775;SDS011;20989;52.566;13.346;2022-07-29T00:24:02;0.60;;;0.60;;
34775;SDS011;20989;52.566;13.346;2022-07-29T00:27:03;0.60;;;0.60;;
34775;SDS011;20989;52.566;13.346;2022-07-29T00:30:04;1.10;;;0.80;;
34775;SDS011;20989;52.566;13.346;2022-07-29T00:33:05;0.60;;;0.60;;
34775;SDS011;20989;52.566;13.346;2022-07-29T00:36:06;0.50;;;0.50;;
34775;SDS011;20989;52.566;13.346;2022-07-29T00:39:06;0.50;;;0.50;;
34775;SDS011;20989;52.566;13.346;2022-07-29T00:42:07;0.77;;;0.77;;
34775;SDS011;20989;52.566;13.346;2022-07-29T00:45:08;0.63;;;0.63;;
34775;SDS011;20989;52.566;13.346;2022-07-29T00:48:09;0.65;;;0.60;;
34775;SDS011;20989;52.566;13.346;2022-07-29T00:51:10;0.55;;;0.55;;
34775;SDS011;20989;52.566;13.346;2022-07-29T00:54:12;0.85;;;0.77;;
34775;SDS011;20989;52.566;13.346;2022-07-29T00:57:13;0.80;;;0.80;;
34775;SDS011;20989;52.566;13.346;2022-07-29T01:00:15;0.50;;;0.50;;
34775;SDS011;20989;52.566;13.346;2022-07-29T01:03:20;0.60;;;0.60;;
34775;SDS011;20989;52.566;13.346;2022-07-29T01:06:21;0.60;;;0.55;;
34775;SDS011;20989;52.566;13.346;2022-07-29T01:09:22;0.63;;;0.50;;
34775;SDS011;20989;52.566;13.346;2022-07-29T01:12:25;0.40;;;0.40;;
34775;SDS011;20989;52.566;13.346;2022-07-29T01:15:28;1.05;;;0.88;;
34775;SDS011;20989;52.566;13.346;2022-07-29T01:18:37;0.57;;;0.52;;
34775;SDS011;20989;52.566;13.346;2022-07-29T01:21:50;1.05;;;0.60;;
34775;SDS011;20989;52.566;13.346;2022-07-29T01:38:20;0.40;;;0.40;;
34775;SDS011;20989;52.566;13.346;2022-07-29T01:41:24;0.93;;;0.80;;
34775;SDS011;20989;52.566;13.346;2022-07-29T01:44:45;0.60;;;0.60;;
34775;SDS011;20989;52.566;13.346;2022-07-29T01:48:13;0.63;;;0.63;;
34775;SDS011;20989;52.566;13.346;2022-07-29T01:51:24;0.65;;;0.52;;
34775;SDS011;20989;52.566;13.346;2022-07-29T01:54:32;0.60;;;0.60;;
34775;SDS011;20989;52.566;13.346;2022-07-29T01:57:44;0.60;;;0.60;;
34775;SDS011;20989;52.566;13.346;2022-07-29T02:00:47;0.43;;;0.43;;
34775;SDS011;20989;52.566;13.346;2022-07-29T02:03:49;0.60;;;0.60;;
34775;SDS011;20989;52.566;13.346;2022-07-29T02:06:53;0.88;;;0.60;;
34775;SDS011;20989;52.566;13.346;2022-07-29T02:09:57;0.70;;;0.70;;
34775;SDS011;20989;52.566;13.346;2022-07-29T02:12:59;0.60;;;0.60;;
34775;SDS011;20989;52.566;13.346;2022-07-29T02:16:02;0.70;;;0.70;;
34775;SDS011;20989;52.566;13.346;2022-07-29T02:19:06;4.55;;;0.80;;
34775;SDS011;20989;52.566;13.346;2022-07-29T02:22:09;0.52;;;0.52;;
34775;SDS011;20989;52.566;13.346;2022-07-29T02:25:12;0.60;;;0.60;;
34775;SDS011;20989;52.566;13.346;2022-07-29T02:28:14;0.55;;;0.55;;
34775;SDS011;20989;52.566;13.346;2022-07-29T02:31:17;0.65;;;0.60;;
34775;SDS011;20989;52.566;13.346;2022-07-29T02:34:21;0.52;;;0.52;;
34775;SDS011;20989;52.566;13.346;2022-07-29T02:37:24;0.40;;;0.40;;
34775;SDS011;20989;52.566;13.346;2022-07-29T02:40:26;0.38;;;0.38;;
34775;SDS011;20989;52.566;13.346;2022-07-29T02:43:27;0.77;;;0.60;;
34775;SDS011;20989;52.566;13.346;2022-07-29T02:46:31;0.40;;;0.40;;
34775;SDS011;20989;52.566;13.346;2022-07-29T02:49:37;0.63;;;0.63;;
34775;SDS011;20989;52.566;13.346;2022-07-29T02:52:44;1.47;;;0.60;;
34775;SDS011;20989;52.566;13.346;2022-07-29T02:55:56;0.60;;;0.50;;
34775;SDS011;20989;52.566;13.346;2022-07-29T02:59:00;0.60;;;0.60;;
34775;SDS011;20989;52.566;13.346;2022-07-29T03:02:05;0.55;;;0.50;;
34775;SDS011;20989;52.566;13.346;2022-07-29T03:05:09;0.63;;;0.57;;
34775;SDS011;20989;52.566;13.346;2022-07-29T03:08:15;0.50;;;0.50;;
34775;SDS011;20989;52.566;13.346;2022-07-29T03:11:17;0.52;;;0.52;;
34775;SDS011;20989;52.566;13.346;2022-07-29T03:14:18;0.60;;;0.60;;
34775;SDS011;20989;52.566;13.346;2022-07-29T03:17:19;0.40;;;0.40;;
34775;SDS011;20989;52.566;13.346;2022-07-29T03:20:21;0.60;;;0.60;;
34775;SDS011;20989;52.566;13.346;2022-07-29T03:23:22;0.60;;;0.60;;
34775;SDS011;20989;52.566;13.346;2022-07-29T03:26:25;0.50;;;0.50;;
34775;SDS011;20989;52.566;13.346;2022-07-29T03:29:26;0.50;;;0.50;;
34775;SDS011;20989;52.566;13.346;2022-07-29T03:32:27;0.40;;;0.40;;
34775;SDS011;20989;52.566;13.346;2022-07-29T03:35:28;0.50;;;0.50;;
34775;SDS011;20989;52.566;13.346;2022-07-29T03:38:32;0.50;;;0.50;;
34775;SDS011;20989;52.566;13.346;2022-07-29T03:41:36;0.50;;;0.50;;
34775;SDS011;20989;52.566;13.346;2022-07-29T03:44:39;0.60;;;0.60;;
34775;SDS011;20989;52.566;13.346;2022-07-29T03:47:43;0.60;;;0.60;;
34775;SDS011;20989;52.566;13.346;2022-07-29T03:50:47;0.60;;;0.60;;
34775;SDS011;20989;52.566;13.346;2022-07-29T03:53:50;0.50;;;0.50;;
34775;SDS011;20989;52.566;13.346;2022-07-29T03:56:51;1.15;;;0.60;;
34775;SDS011;20989;52.566;13.346;2022-07-29T03:59:53;0.60;;;0.60;;
34775;SDS011;20989;52.566;13.346;2022-07-29T04:02:54;0.70;;;0.70;;
34775;SDS011;20989;52.566;13.346;2022-07-29T04:06:04;0.50;;;0.50;;
34775;SDS011;20989;52.566;13.346;2022-07-29T04:09:06;0.60;;;0.60;;
34775;SDS011;20989;52.566;13.346;2022-07-29T04:12:06;0.30;;;0.30;;
34775;SDS011;20989;52.566;13.346;2022-07-29T04:15:07;0.60;;;0.60;;
34775;SDS011;20989;52.566;13.346;2022-07-29T04:18:08;1.25;;;0.80;;
34775;SDS011;20989;52.566;13.346;2022-07-29T04:21:09;0.47;;;0.47;;
34775;SDS011;20989;52.566;13.346;2022-07-29T04:24:10;0.50;;;0.50;;
34775;SDS011;20989;52.566;13.346;2022-07-29T04:27:10;0.35;;;0.35;;
34775;SDS011;20989;52.566;13.346;2022-07-29T04:30:11;0.93;;;0.70;;
34775;SDS011;20989;52.566;13.346;2022-07-29T04:33:12;0.40;;;0.40;;
34775;SDS011;20989;52.566;13.346;2022-07-29T04:36:13;0.57;;;0.57;;
34775;SDS011;20989;52.566;13.346;2022-07-29T04:39:13;0.68;;;0.68;;
34775;SDS011;20989;52.566;13.346;2022-07-29T04:42:14;0.95;;;0.80;;
34775;SDS011;20989;52.566;13.346;2022-07-29T04:45:15;0.50;;;0.50;;
34775;SDS011;20989;52.566;13.346;2022-07-29T04:48:16;0.52;;;0.52;;
34775;SDS011;20989;52.566;13.346;2022-07-29T04:51:16;0.68;;;0.68;;
34775;SDS011;20989;52.566;13.346;2022-07-29T04:54:17;0.60;;;0.60;;
34775;SDS011;20989;52.566;13.346;2022-07-29T04:57:18;0.60;;;0.60;;
34775;SDS011;20989;52.566;13.346;2022-07-29T05:00:33;0.60;;;0.60;;
34775;SDS011;20989;52.566;13.346;2022-07-29T05:03:34;0.50;;;0.50;;
34775;SDS011;20989;52.566;13.346;2022-07-29T05:06:35;0.70;;;0.70;;
34775;SDS011;20989;52.566;13.346;2022-07-29T05:09:35;0.50;;;0.50;;
34775;SDS011;20989;52.566;13.346;2022-07-29T05:12:36;0.50;;;0.50;;
34775;SDS011;20989;52.566;13.346;2022-07-29T05:15:37;0.40;;;0.40;;
34775;SDS011;20989;52.566;13.346;2022-07-29T05:18:37;0.50;;;0.50;;
34775;SDS011;20989;52.566;13.346;2022-07-29T05:21:38;0.47;;;0.47;;
34775;SDS011;20989;52.566;13.346;2022-07-29T05:24:38;0.50;;;0.50;;
34775;SDS011;20989;52.566;13.346;2022-07-29T05:27:39;0.50;;;0.50;;
34775;SDS011;20989;52.566;13.346;2022-07-29T05:30:40;0.40;;;0.40;;
34775;SDS011;20989;52.566;13.346;2022-07-29T05:33:41;0.50;;;0.50;;
34775;SDS011;20989;52.566;13.346;2022-07-29T05:36:41;0.60;;;0.60;;
34775;SDS011;20989;52.566;13.346;2022-07-29T05:39:42;0.82;;;0.50;;
34775;SDS011;20989;52.566;13.346;2022-07-29T05:42:42;0.50;;;0.50;;
34775;SDS011;20989;52.566;13.346;2022-07-29T05:45:43;0.47;;;0.47;;
34775;SDS011;20989;52.566;13.346;2022-07-29T05:48:44;0.60;;;0.60;;
34775;SDS011;20989;52.566;13.346;2022-07-29T05:51:44;0.60;;;0.50;;
34775;SDS011;20989;52.566;13.346;2022-07-29T05:54:45;0.50;;;0.50;;
34775;SDS011;20989;52.566;13.346;2022-07-29T05:57:46;0.40;;;0.40;;
34775;SDS011;20989;52.566;13.346;2022-07-29T06:00:47;0.50;;;0.50;;
34775;SDS011;20989;52.566;13.346;2022-07-29T06:03:48;1.35;;;0.60;;
34775;SDS011;20989;52.566;13.346;2022-07-29T06:06:48;0.52;;;0.52;;
34775;SDS011;20989;52.566;13.346;2022-07-29T06:09:49;0.50;;;0.50;;
34775;SDS011;20989;52.566;13.346;2022-07-29T06:12:49;0.55;;;0.55;;
34775;SDS011;20989;52.566;13.346;2022-07-29T06:15:50;0.70;;;0.70;;
34775;SDS011;20989;52.566;13.346;2022-07-29T06:18:51;0.63;;;0.63;;
34775;SDS011;20989;52.566;13.346;2022-07-29T06:21:52;0.50;;;0.50;;
34775;SDS011;20989;52.566;13.346;2022-07-29T06:24:52;1.20;;;0.65;;
34775;SDS011;20989;52.566;13.346;2022-07-29T06:27:53;0.60;;;0.60;;
34775;SDS011;20989;52.566;13.346;2022-07-29T06:30:54;0.70;;;0.60;;
34775;SDS011;20989;52.566;13.346;2022-07-29T06:33:54;0.85;;;0.80;;
34775;SDS011;20989;52.566;13.346;2022-07-29T06:36:55;0.80;;;0.60;;
34775;SDS011;20989;52.566;13.346;2022-07-29T06:39:55;0.85;;;0.80;;
34775;SDS011;20989;52.566;13.346;2022-07-29T06:43:15;0.65;;;0.60;;
34775;SDS011;20989;52.566;13.346;2022-07-29T06:46:15;1.85;;;0.55;;
34775;SDS011;20989;52.566;13.346;2022-07-29T06:49:19;0.68;;;0.57;;
34775;SDS011;20989;52.566;13.346;2022-07-29T06:52:20;0.60;;;0.60;;
34775;SDS011;20989;52.566;13.346;2022-07-29T06:55:21;0.60;;;0.60;;
34775;SDS011;20989;52.566;13.346;2022-07-29T06:58:21;0.60;;;0.60;;
34775;SDS011;20989;52.566;13.346;2022-07-29T07:01:22;0.60;;;0.60;;
34775;SDS011;20989;52.566;13.346;2022-07-29T07:04:23;0.55;;;0.55;;
34775;SDS011;20989;52.566;13.346;2022-07-29T07:07:23;0.60;;;0.60;;
34775;SDS011;20989;52.566;13.346;2022-07-29T07:10:24;0.60;;;0.60;;
34775;SDS011;20989;52.566;13.346;2022-07-29T07:13:25;0.57;;;0.57;;
34775;SDS011;20989;52.566;13.346;2022-07-29T07:16:26;0.50;;;0.50;;
34775;SDS011;20989;52.566;13.346;2022-07-29T07:19:26;0.50;;;0.50;;
34775;SDS011;20989;52.566;13.346;2022-07-29T07:22:27;0.70;;;0.70;;
34775;SDS011;20989;52.566;13.346;2022-07-29T07:25:28;0.98;;;0.50;;
34775;SDS011;20989;52.566;13.346;2022-07-29T07:28:29;1.15;;;0.60;;
34775;SDS011;20989;52.566;13.346;2022-07-29T07:31:29;0.70;;;0.70;;
34775;SDS011;20989;52.566;13.346;2022-07-29T07:34:30;2.97;;;0.68;;
34775;SDS011;20989;52.566;13.346;2022-07-29T07:37:30;6.00;;;0.70;;
34775;SDS011;20989;52.566;13.346;2022-07-29T07:40:31;8.98;;;1.25;;
34775;SDS011;20989;52.566;13.346;2022-07-29T07:43:32;1.70;;;1.30;;
34775;SDS011;20989;52.566;13.346;2022-07-29T07:46:33;2.65;;;1.23;;
34775;SDS011;20989;52.566;13.346;2022-07-29T07:49:34;3.47;;;0.88;;
34775;SDS011;20989;52.566;13.346;2022-07-29T07:52:37;3.13;;;1.08;;
34775;SDS011;20989;52.566;13.346;2022-07-29T07:55:49;2.65;;;0.95;;
34775;SDS011;20989;52.566;13.346;2022-07-29T07:58:50;0.80;;;0.80;;
34775;SDS011;20989;52.566;13.346;2022-07-29T08:01:50;4.85;;;0.80;;
34775;SDS011;20989;52.566;13.346;2022-07-29T08:04:51;1.52;;;1.33;;
34775;SDS011;20989;52.566;13.346;2022-07-29T08:07:52;0.73;;;0.73;;
34775;SDS011;20989;52.566;13.346;2022-07-29T08:10:52;0.98;;;0.90;;
34775;SDS011;20989;52.566;13.346;2022-07-29T08:13:53;2.25;;;1.00;;
34775;SDS011;20989;52.566;13.346;2022-07-29T08:16:54;1.23;;;1.13;;
34775;SDS011;20989;52.566;13.346;2022-07-29T08:19:54;1.05;;;0.95;;
34775;SDS011;20989;52.566;13.346;2022-07-29T08:22:55;1.40;;;1.08;;
34775;SDS011;20989;52.566;13.346;2022-07-29T08:25:56;1.73;;;1.10;;
34775;SDS011;20989;52.566;13.346;2022-07-29T08:28:56;1.80;;;1.08;;
34775;SDS011;20989;52.566;13.346;2022-07-29T08:31:57;0.98;;;0.88;;
34775;SDS011;20989;52.566;13.346;2022-07-29T08:34:57;1.33;;;1.15;;
34775;SDS011;20989;52.566;13.346;2022-07-29T08:37:58;1.10;;;1.00;;
34775;SDS011;20989;52.566;13.346;2022-07-29T08:41:02;1.15;;;1.08;;
34775;SDS011;20989;52.566;13.346;2022-07-29T08:44:03;1.25;;;1.10;;
34775;SDS011;20989;52.566;13.346;2022-07-29T08:47:04;1.55;;;1.00;;
34775;SDS011;20989;52.566;13.346;2022-07-29T08:50:05;0.80;;;0.80;;
34775;SDS011;20989;52.566;13.346;2022-07-29T08:53:07;1.25;;;0.80;;
34775;SDS011;20989;52.566;13.346;2022-07-29T08:56:11;1.00;;;0.75;;
34775;SDS011;20989;52.566;13.346;2022-07-29T08:59:13;1.05;;;0.90;;
34775;SDS011;20989;52.566;13.346;2022-07-29T09:02:21;1.70;;;1.15;;
34775;SDS011;20989;52.566;13.346;2022-07-29T09:05:23;1.70;;;0.93;;
34775;SDS011;20989;52.566;13.346;2022-07-29T09:08:24;1.48;;;1.00;;
34775;SDS011;20989;52.566;13.346;2022-07-29T09:11:26;0.77;;;0.77;;
34775;SDS011;20989;52.566;13.346;2022-07-29T09:14:28;1.23;;;1.20;;
34775;SDS011;20989;52.566;13.346;2022-07-29T09:17:41;1.25;;;1.15;;
34775;SDS011;20989;52.566;13.346;2022-07-29T09:20:51;0.73;;;0.70;;
34775;SDS011;20989;52.566;13.346;2022-07-29T09:24:11;0.68;;;0.68;;
34775;SDS011;20989;52.566;13.346;2022-07-29T09:30:22;0.90;;;0.80;;
34775;SDS011;20989;52.566;13.346;2022-07-29T09:33:23;0.90;;;0.90;;
34775;SDS011;20989;52.566;13.346;2022-07-29T09:36:38;1.20;;;1.10;;
34775;SDS011;20989;52.566;13.346;2022-07-29T09:39:46;0.75;;;0.75;;
34775;SDS011;20989;52.566;13.346;2022-07-29T09:42:46;1.35;;;1.00;;
34775;SDS011;20989;52.566;13.346;2022-07-29T09:45:47;1.45;;;0.90;;
34775;SDS011;20989;52.566;13.346;2022-07-29T09:52:18;0.80;;;0.80;;
34775;SDS011;20989;52.566;13.346;2022-07-29T09:55:19;1.05;;;0.80;;
34775;SDS011;20989;52.566;13.346;2022-07-29T09:58:20;1.15;;;0.68;;
34775;SDS011;20989;52.566;13.346;2022-07-29T10:01:28;1.23;;;0.80;;
34775;SDS011;20989;52.566;13.346;2022-07-29T10:04:39;1.10;;;1.00;;
34775;SDS011;20989;52.566;13.346;2022-07-29T10:07:47;0.93;;;0.90;;
34775;SDS011;20989;52.566;13.346;2022-07-29T10:10:49;0.90;;;0.90;;
34775;SDS011;20989;52.566;13.346;2022-07-29T10:13:50;0.77;;;0.77;;
34775;SDS011;20989;52.566;13.346;2022-07-29T10:16:51;0.88;;;0.80;;
34775;SDS011;20989;52.566;13.346;2022-07-29T10:19:52;1.30;;;1.05;;
34775;SDS011;20989;52.566;13.346;2022-07-29T10:22:53;0.80;;;0.80;;
34775;SDS011;20989;52.566;13.346;2022-07-29T10:25:54;0.80;;;0.80;;
34775;SDS011;20989;52.566;13.346;2022-07-29T10:28:55;0.82;;;0.82;;
34775;SDS011;20989;52.566;13.346;2022-07-29T10:35:33;1.67;;;0.90;;
34775;SDS011;20989;52.566;13.346;2022-07-29T10:39:05;1.83;;;1.08;;
34775;SDS011;20989;52.566;13.346;2022-07-29T10:42:37;3.30;;;0.95;;
34775;SDS011;20989;52.566;13.346;2022-07-29T10:45:41;2.33;;;0.85;;
34775;SDS011;20989;52.566;13.346;2022-07-29T10:52:12;0.80;;;0.80;;
34775;SDS011;20989;52.566;13.346;2022-07-29T10:58:38;1.00;;;0.80;;
34775;SDS011;20989;52.566;13.346;2022-07-29T11:01:38;0.65;;;0.60;;
34775;SDS011;20989;52.566;13.346;2022-07-29T11:21:01;0.60;;;0.60;;
34775;SDS011;20989;52.566;13.346;2022-07-29T11:24:15;1.10;;;1.00;;
34775;SDS011;20989;52.566;13.346;2022-07-29T11:27:21;1.45;;;0.95;;
34775;SDS011;20989;52.566;13.346;2022-07-29T11:31:03;0.77;;;0.77;;
34775;SDS011;20989;52.566;13.346;2022-07-29T11:34:15;0.80;;;0.80;;
34775;SDS011;20989;52.566;13.346;2022-07-29T11:37:19;0.70;;;0.70;;
34775;SDS011;20989;52.566;13.346;2022-07-29T11:40:21;0.85;;;0.65;;
34775;SDS011;20989;52.566;13.346;2022-07-29T11:43:45;0.70;;;0.70;;
34775;SDS011;20989;52.566;13.346;2022-07-29T11:46:57;0.65;;;0.65;;
34775;SDS011;20989;52.566;13.346;2022-07-29T11:49:59;0.95;;;0.80;;
34775;SDS011;20989;52.566;13.346;2022-07-29T11:53:03;0.73;;;0.73;;
34775;SDS011;20989;52.566;13.346;2022-07-29T11:56:11;0.73;;;0.73;;
34775;SDS011;20989;52.566;13.346;2022-07-29T11:59:14;0.73;;;0.73;;
34775;SDS011;20989;52.566;13.346;2022-07-29T12:02:15;0.70;;;0.70;;
34775;SDS011;20989;52.566;13.346;2022-07-29T12:05:16;0.77;;;0.77;;
34775;SDS011;20989;52.566;13.346;2022-07-29T12:08:18;0.80;;;0.80;;
34775;SDS011;20989;52.566;13.346;2022-07-29T12:11:21;0.82;;;0.82;;
34775;SDS011;20989;52.566;13.346;2022-07-29T12:14:26;0.82;;;0.77;;
34775;SDS011;20989;52.566;13.346;2022-07-29T12:17:31;0.60;;;0.60;;
34775;SDS011;20989;52.566;13.346;2022-07-29T12:20:33;0.60;;;0.60;;
34775;SDS011;20989;52.566;13.346;2022-07-29T12:23:34;1.85;;;0.60;;
34775;SDS011;20989;52.566;13.346;2022-07-29T12:26:35;0.68;;;0.68;;
34775;SDS011;20989;52.566;13.346;2022-07-29T12:29:36;0.63;;;0.63;;
34775;SDS011;20989;52.566;13.346;2022-07-29T12:32:38;0.80;;;0.80;;
34775;SDS011;20989;52.566;13.346;2022-07-29T12:35:41;1.08;;;0.98;;
34775;SDS011;20989;52.566;13.346;2022-07-29T12:38:43;1.13;;;0.98;;
34775;SDS011;20989;52.566;13.346;2022-07-29T12:41:45;0.68;;;0.68;;
34775;SDS011;20989;52.566;13.346;2022-07-29T12:44:49;0.70;;;0.70;;
34775;SDS011;20989;52.566;13.346;2022-07-29T12:47:51;0.85;;;0.85;;
34775;SDS011;20989;52.566;13.346;2022-07-29T12:50:56;0.75;;;0.75;;
34775;SDS011;20989;52.566;13.346;2022-07-29T12:54:17;0.77;;;0.77;;
34775;SDS011;20989;52.566;13.346;2022-07-29T12:57:17;2.78;;;0.98;;
34775;SDS011;20989;52.566;13.346;2022-07-29T13:00:22;0.80;;;0.80;;
34775;SDS011;20989;52.566;13.346;2022-07-29T13:03:23;1.75;;;0.65;;
34775;SDS011;20989;52.566;13.346;2022-07-29T13:06:31;0.90;;;0.90;;
34775;SDS011;20989;52.566;13.346;2022-07-29T13:09:39;1.38;;;0.80;;
34775;SDS011;20989;52.566;13.346;2022-07-29T13:16:06;0.70;;;0.70;;
34775;SDS011;20989;52.566;13.346;2022-07-29T13:19:08;0.90;;;0.90;;
34775;SDS011;20989;52.566;13.346;2022-07-29T13:22:14;0.60;;;0.60;;
34775;SDS011;20989;52.566;13.346;2022-07-29T13:25:24;0.57;;;0.57;;
34775;SDS011;20989;52.566;13.346;2022-07-29T13:28:31;0.63;;;0.63;;
34775;SDS011;20989;52.566;13.346;2022-07-29T13:31:32;0.73;;;0.73;;
34775;SDS011;20989;52.566;13.346;2022-07-29T13:34:33;0.75;;;0.75;;
34775;SDS011;20989;52.566;13.346;2022-07-29T13:37:34;1.10;;;1.05;;
34775;SDS011;20989;52.566;13.346;2022-07-29T13:40:38;0.90;;;0.90;;
34775;SDS011;20989;52.566;13.346;2022-07-29T13:43:38;1.23;;;0.90;;
34775;SDS011;20989;52.566;13.346;2022-07-29T13:46:39;0.93;;;0.80;;
34775;SDS011;20989;52.566;13.346;2022-07-29T13:49:39;1.48;;;0.90;;
34775;SDS011;20989;52.566;13.346;2022-07-29T13:52:40;0.82;;;0.80;;
34775;SDS011;20989;52.566;13.346;2022-07-29T13:55:41;0.70;;;0.70;;
34775;SDS011;20989;52.566;13.346;2022-07-29T13:58:41;2.05;;;0.95;;
34775;SDS011;20989;52.566;13.346;2022-07-29T14:01:42;1.27;;;1.17;;
34775;SDS011;20989;52.566;13.346;2022-07-29T14:04:43;0.68;;;0.68;;
34775;SDS011;20989;52.566;13.346;2022-07-29T14:07:44;0.57;;;0.50;;
34775;SDS011;20989;52.566;13.346;2022-07-29T14:10:44;0.98;;;0.98;;
34775;SDS011;20989;52.566;13.346;2022-07-29T14:13:45;0.82;;;0.82;;
34775;SDS011;20989;52.566;13.346;2022-07-29T14:16:45;1.10;;;1.00;;
34775;SDS011;20989;52.566;13.346;2022-07-29T14:19:46;0.75;;;0.75;;
34775;SDS011;20989;52.566;13.346;2022-07-29T14:22:47;0.70;;;0.70;;
34775;SDS011;20989;52.566;13.346;2022-07-29T14:25:48;0.68;;;0.68;;
34775;SDS011;20989;52.566;13.346;2022-07-29T14:28:49;0.80;;;0.80;;
34775;SDS011;20989;52.566;13.346;2022-07-29T14:31:49;1.00;;;1.00;;
34775;SDS011;20989;52.566;13.346;2022-07-29T14:34:50;0.95;;;0.90;;
34775;SDS011;20989;52.566;13.346;2022-07-29T14:37:51;0.70;;;0.70;;
34775;SDS011;20989;52.566;13.346;2022-07-29T14:40:51;0.60;;;0.60;;
34775;SDS011;20989;52.566;13.346;2022-07-29T14:43:52;0.77;;;0.77;;
34775;SDS011;20989;52.566;13.346;2022-07-29T14:46:53;1.00;;;0.80;;
34775;SDS011;20989;52.566;13.346;2022-07-29T14:49:53;0.70;;;0.70;;
34775;SDS011;20989;52.566;13.346;2022-07-29T14:52:54;1.27;;;1.02;;
34775;SDS011;20989;52.566;13.346;2022-07-29T14:55:55;0.70;;;0.70;;
34775;SDS011;20989;52.566;13.346;2022-07-29T14:58:56;0.70;;;0.70;;
34775;SDS011;20989;52.566;13.346;2022-07-29T15:01:57;1.02;;;1.02;;
34775;SDS011;20989;52.566;13.346;2022-07-29T15:04:58;0.80;;;0.80;;
34775;SDS011;20989;52.566;13.346;2022-07-29T15:07:58;0.73;;;0.73;;
34775;SDS011;20989;52.566;13.346;2022-07-29T15:10:59;1.08;;;1.00;;
34775;SDS011;20989;52.566;13.346;2022-07-29T15:14:00;1.00;;;1.00;;
34775;SDS011;20989;52.566;13.346;2022-07-29T15:17:01;0.90;;;0.90;;
34775;SDS011;20989;52.566;13.346;2022-07-29T15:20:02;0.70;;;0.70;;
34775;SDS011;20989;52.566;13.346;2022-07-29T15:23:04;0.90;;;0.90;;
34775;SDS011;20989;52.566;13.346;2022-07-29T15:26:04;0.85;;;0.85;;
34775;SDS011;20989;52.566;13.346;2022-07-29T15:29:05;0.80;;;0.80;;
34775;SDS011;20989;52.566;13.346;2022-07-29T15:32:05;0.90;;;0.90;;
34775;SDS011;20989;52.566;13.346;2022-07-29T15:35:06;0.82;;;0.82;;
34775;SDS011;20989;52.566;13.346;2022-07-29T15:38:07;0.50;;;0.50;;
34775;SDS011;20989;52.566;13.346;2022-07-29T15:41:08;0.80;;;0.80;;
34775;SDS011;20989;52.566;13.346;2022-07-29T15:44:08;1.02;;;1.02;;
34775;SDS011;20989;52.566;13.346;2022-07-29T15:47:09;0.60;;;0.60;;
34775;SDS011;20989;52.566;13.346;2022-07-29T15:50:10;0.90;;;0.90;;
34775;SDS011;20989;52.566;13.346;2022-07-29T15:53:14;1.55;;;1.00;;
34775;SDS011;20989;52.566;13.346;2022-07-29T15:56:15;0.65;;;0.65;;
34775;SDS011;20989;52.566;13.346;2022-07-29T15:59:16;0.77;;;0.77;;
34775;SDS011;20989;52.566;13.346;2022-07-29T16:02:17;0.82;;;0.82;;
34775;SDS011;20989;52.566;13.346;2022-07-29T16:05:18;0.70;;;0.70;;
34775;SDS011;20989;52.566;13.346;2022-07-29T16:08:19;0.70;;;0.70;;
34775;SDS011;20989;52.566;13.346;2022-07-29T16:11:20;0.80;;;0.80;;
34775;SDS011;20989;52.566;13.346;2022-07-29T16:14:21;0.80;;;0.80;;
34775;SDS011;20989;52.566;13.346;2022-07-29T16:17:22;0.95;;;0.95;;
34775;SDS011;20989;52.566;13.346;2022-07-29T16:20:22;0.70;;;0.70;;
34775;SDS011;20989;52.566;13.346;2022-07-29T16:23:23;1.17;;;1.10;;
34775;SDS011;20989;52.566;13.346;2022-07-29T16:26:24;1.58;;;0.82;;
34775;SDS011;20989;52.566;13.346;2022-07-29T16:29:24;0.95;;;0.77;;
34775;SDS011;20989;52.566;13.346;2022-07-29T16:32:25;0.90;;;0.90;;
34775;SDS011;20989;52.566;13.346;2022-07-29T16:35:26;0.82;;;0.82;;
34775;SDS011;20989;52.566;13.346;2022-07-29T16:38:26;0.70;;;0.70;;
34775;SDS011;20989;52.566;13.346;2022-07-29T16:41:27;0.70;;;0.70;;
34775;SDS011;20989;52.566;13.346;2022-07-29T16:44:28;0.95;;;0.95;;
34775;SDS011;20989;52.566;13.346;2022-07-29T16:47:29;0.80;;;0.80;;
34775;SDS011;20989;52.566;13.346;2022-07-29T16:50:29;1.20;;;1.10;;
34775;SDS011;20989;52.566;13.346;2022-07-29T16:53:31;0.90;;;0.90;;
34775;SDS011;20989;52.566;13.346;2022-07-29T16:56:32;0.80;;;0.80;;
34775;SDS011;20989;52.566;13.346;2022-07-29T16:59:33;0.85;;;0.80;;
34775;SDS011;20989;52.566;13.346;2022-07-29T17:02:33;0.60;;;0.60;;
34775;SDS011;20989;52.566;13.346;2022-07-29T17:05:34;0.70;;;0.70;;
34775;SDS011;20989;52.566;13.346;2022-07-29T17:08:35;0.98;;;0.85;;
34775;SDS011;20989;52.566;13.346;2022-07-29T17:11:36;0.70;;;0.68;;
34775;SDS011;20989;52.566;13.346;2022-07-29T17:14:37;0.80;;;0.80;;
34775;SDS011;20989;52.566;13.346;2022-07-29T17:17:38;0.90;;;0.90;;
34775;SDS011;20989;52.566;13.346;2022-07-29T17:20:42;0.90;;;0.90;;
34775;SDS011;20989;52.566;13.346;2022-07-29T17:23:42;0.82;;;0.82;;
34775;SDS011;20989;52.566;13.346;2022-07-29T17:26:43;0.70;;;0.70;;
34775;SDS011;20989;52.566;13.346;2022-07-29T17:29:44;0.77;;;0.77;;
34775;SDS011;20989;52.566;13.346;2022-07-29T17:32:45;0.70;;;0.70;;
34775;SDS011;20989;52.566;13.346;2022-07-29T17:35:46;0.80;;;0.80;;
34775;SDS011;20989;52.566;13.346;2022-07-29T17:39:05;0.90;;;0.90;;
34775;SDS011;20989;52.566;13.346;2022-07-29T17:42:08;0.85;;;0.85;;
34775;SDS011;20989;52.566;13.346;2022-07-29T17:45:09;0.70;;;0.70;;
34775;SDS011;20989;52.566;13.346;2022-07-29T17:48:10;0.77;;;0.70;;
34775;SDS011;20989;52.566;13.346;2022-07-29T17:51:11;1.05;;;0.95;;
34775;SDS011;20989;52.566;13.346;2022-07-29T17:54:12;0.85;;;0.85;;
34775;SDS011;20989;52.566;13.346;2022-07-29T17:57:12;0.95;;;0.90;;
34775;SDS011;20989;52.566;13.346;2022-07-29T18:00:13;1.20;;;0.80;;
34775;SDS011;20989;52.566;13.346;2022-07-29T18:03:14;1.65;;;0.60;;
34775;SDS011;20989;52.566;13.346;2022-07-29T18:06:15;0.80;;;0.80;;
34775;SDS011;20989;52.566;13.346;2022-07-29T18:09:15;1.00;;;0.70;;
34775;SDS011;20989;52.566;13.346;2022-07-29T18:12:16;2.80;;;0.98;;
34775;SDS011;20989;52.566;13.346;2022-07-29T18:15:17;1.33;;;1.10;;
34775;SDS011;20989;52.566;13.346;2022-07-29T18:18:17;0.80;;;0.80;;
34775;SDS011;20989;52.566;13.346;2022-07-29T18:21:18;1.00;;;1.00;;
34775;SDS011;20989;52.566;13.346;2022-07-29T18:24:18;1.02;;;0.90;;
34775;SDS011;20989;52.566;13.346;2022-07-29T18:27:19;0.88;;;0.88;;
34775;SDS011;20989;52.566;13.346;2022-07-29T18:30:20;0.70;;;0.70;;
34775;SDS011;20989;52.566;13.346;2022-07-29T18:33:20;0.70;;;0.70;;
34775;SDS011;20989;52.566;13.346;2022-07-29T18:36:21;0.70;;;0.70;;
34775;SDS011;20989;52.566;13.346;2022-07-29T18:39:22;1.08;;;0.80;;
34775;SDS011;20989;52.566;13.346;2022-07-29T18:42:22;0.50;;;0.50;;
34775;SDS011;20989;52.566;13.346;2022-07-29T18:45:23;0.70;;;0.70;;
34775;SDS011;20989;52.566;13.346;2022-07-29T18:48:24;0.80;;;0.80;;
34775;SDS011;20989;52.566;13.346;2022-07-29T18:51:24;0.75;;;0.70;;
34775;SDS011;20989;52.566;13.346;2022-07-29T18:54:25;0.85;;;0.85;;